Time,TemperatureF,DewpointF,PressureIn,WindDirection,WindDirectionDegrees,WindSpeedMPH,WindSpeedGustMPH,Humidity,HourlyPrecipIn,Conditions,Clouds,dailyrainin,SoftwareType,DateUTC
2013-06-22 00:09:00,77.0,70.0,29.93,SSW,210,7.0,14.0,80,0.00,,,0.00,weatherlink.com 1.10,2013-06-22 05:09:00,
2013-06-22 00:24:00,77.2,71.0,29.93,SSW,211,6.0,14.0,80,0.00,,,0.00,weatherlink.com 1.10,2013-06-22 05:24:00,
2013-06-22 00:39:00,77.2,71.0,29.92,WSW,248,8.0,16.0,80,0.00,,,0.00,weatherlink.com 1.10,2013-06-22 05:39:00,
2013-06-22 00:54:00,77.5,71.0,29.91,SW,228,7.0,14.0,80,0.00,,,0.00,weatherlink.com 1.10,2013-06-22 05:54:00,
2013-06-22 01:09:00,78.0,71.0,29.90,WSW,246,10.0,14.0,80,0.00,,,0.00,weatherlink.com 1.10,2013-06-22 06:09:00,
2013-06-22 01:24:00,78.0,71.0,29.89,South,184,14.0,18.0,80,0.00,,,0.00,weatherlink.com 1.10,2013-06-22 06:24:00,
2013-06-22 01:39:00,78.1,72.0,29.88,SSW,208,10.0,16.0,81,0.00,,,0.00,weatherlink.com 1.10,2013-06-22 06:39:00,
2013-06-22 01:54:00,77.9,72.0,29.87,WSW,246,8.0,13.0,81,0.00,,,0.00,weatherlink.com 1.10,2013-06-22 06:54:00,
2013-06-22 02:09:00,77.9,72.0,29.88,South,179,13.0,16.0,81,0.00,,,0.00,weatherlink.com 1.10,2013-06-22 07:09:00,
2013-06-22 02:24:00,78.4,72.0,29.89,WSW,258,13.0,16.0,81,0.00,,,0.00,weatherlink.com 1.10,2013-06-22 07:24:00,
2013-06-22 02:39:00,78.6,72.0,29.90,WSW,249,10.0,17.0,81,0.00,,,0.00,weatherlink.com 1.10,2013-06-22 07:39:00,
2013-06-22 02:54:00,78.7,72.0,29.92,SSW,203,7.0,14.0,81,0.00,,,0.00,weatherlink.com 1.10,2013-06-22 07:54:00,
2013-06-22 03:09:00,78.6,73.0,29.93,WSW,258,9.0,12.0,82,0.00,,,0.00,weatherlink.com 1.10,2013-06-22 08:09:00,
2013-06-22 03:24:00,78.4,73.0,29.93,WSW,255,8.0,11.0,82,0.00,,,0.00,weatherlink.com 1.10,2013-06-22 08:24:00,
2013-06-22 03:39:00,78.4,73.0,29.93,SSW,198,9.0,12.0,82,0.00,,,0.00,weatherlink.com 1.10,2013-06-22 08:39:00,
2013-06-22 03:54:00,78.4,73.0,29.93,SW,228,5.0,11.0,82,0.00,,,0.00,weatherlink.com 1.10,2013-06-22 08:54:00,
2013-06-22 04:09:00,78.3,73.0,29.94,SSW,213,5.0,9.0,83,0.00,,,0.00,weatherlink.com 1.10,2013-06-22 09:09:00,
2013-06-22 04:24:00,78.3,73.0,29.95,SW,220,4.0,8.0,83,0.00,,,0.00,weatherlink.com 1.10,2013-06-22 09:24:00,
2013-06-22 04:39:00,78.3,73.0,29.95,West,273,4.0,8.0,83,0.00,,,0.00,weatherlink.com 1.10,2013-06-22 09:39:00,
2013-06-22 04:54:00,78.3,73.0,29.94,SW,232,6.0,9.0,83,0.00,,,0.00,weatherlink.com 1.10,2013-06-22 09:54:00,
2013-06-22 05:09:00,78.2,73.0,29.95,SW,234,4.0,9.0,83,0.00,,,0.00,weatherlink.com 1.10,2013-06-22 10:09:00,
2013-06-22 05:24:00,78.4,73.0,29.96,SW,222,2.0,9.0,83,0.00,,,0.00,weatherlink.com 1.10,2013-06-22 10:24:00,
2013-06-22 05:39:00,78.2,73.0,29.98,SSE,153,0.0,3.0,83,0.00,,,0.00,weatherlink.com 1.10,2013-06-22 10:39:00,
2013-06-22 05:55:00,76.0,69.0,30.00,SE,127,9.0,23.0,78,0.00,,,0.00,weatherlink.com 1.10,2013-06-22 10:55:00,
2013-06-22 06:10:00,72.9,68.0,30.00,ESE,104,14.0,19.0,83,0.00,,,0.00,weatherlink.com 1.10,2013-06-22 11:10:00,
2013-06-22 06:25:00,70.4,66.0,30.00,ENE,69,7.0,19.0,85,0.00,,,0.00,weatherlink.com 1.10,2013-06-22 11:25:00,
2013-06-22 06:40:00,69.9,65.0,30.00,ESE,104,8.0,14.0,84,0.00,,,0.00,weatherlink.com 1.10,2013-06-22 11:40:00,
2013-06-22 06:55:00,69.7,65.0,29.98,SE,124,8.0,15.0,85,0.00,,,0.00,weatherlink.com 1.10,2013-06-22 11:55:00,
2013-06-22 07:10:00,69.9,66.0,29.98,SE,138,9.0,16.0,86,0.00,,,0.00,weatherlink.com 1.10,2013-06-22 12:10:00,
2013-06-22 07:25:00,70.7,66.0,29.96,South,169,10.0,19.0,85,0.00,,,0.00,weatherlink.com 1.10,2013-06-22 12:25:00,
2013-06-22 07:40:00,71.5,67.0,29.98,ESE,116,4.0,14.0,85,0.00,,,0.00,weatherlink.com 1.10,2013-06-22 12:40:00,
2013-06-22 07:55:00,71.8,66.0,30.00,SE,135,9.0,11.0,83,0.00,,,0.00,weatherlink.com 1.10,2013-06-22 12:55:00,
2013-06-22 08:10:00,72.1,66.0,30.00,ESE,114,5.0,12.0,82,0.00,,,0.00,weatherlink.com 1.10,2013-06-22 13:10:00,
2013-06-22 08:25:00,72.8,67.0,30.02,SE,132,8.0,12.0,81,0.00,,,0.00,weatherlink.com 1.10,2013-06-22 13:25:00,
2013-06-22 08:40:00,73.6,67.0,30.01,SE,129,4.0,12.0,80,0.00,,,0.00,weatherlink.com 1.10,2013-06-22 13:40:00,
2013-06-22 08:55:00,74.0,67.0,30.02,SE,125,7.0,16.0,79,0.00,,,0.00,weatherlink.com 1.10,2013-06-22 13:55:00,
2013-06-22 09:10:00,73.9,67.0,30.03,ESE,108,8.0,19.0,79,0.00,,,0.00,weatherlink.com 1.10,2013-06-22 14:10:00,
2013-06-22 09:25:00,72.3,66.0,30.05,NE,54,15.0,22.0,80,0.00,,,0.00,weatherlink.com 1.10,2013-06-22 14:25:00,
2013-06-22 09:40:00,71.4,65.0,30.03,East,99,1.0,12.0,81,0.00,,,0.00,weatherlink.com 1.10,2013-06-22 14:40:00,
2013-06-22 09:55:00,70.5,65.0,30.01,ESE,115,10.0,16.0,82,0.00,,,0.00,weatherlink.com 1.10,2013-06-22 14:55:00,
2013-06-22 10:10:00,71.1,65.0,30.02,SE,139,5.0,12.0,82,0.00,,,0.00,weatherlink.com 1.10,2013-06-22 15:10:00,
2013-06-22 10:25:00,72.8,66.0,30.02,SE,143,3.0,10.0,79,0.00,,,0.00,weatherlink.com 1.10,2013-06-22 15:25:00,
2013-06-22 10:40:00,74.5,67.0,30.02,South,185,7.0,17.0,76,0.00,,,0.00,weatherlink.com 1.10,2013-06-22 15:40:00,
2013-06-22 10:55:00,76.0,67.0,30.02,SE,138,11.0,15.0,73,0.00,,,0.00,weatherlink.com 1.10,2013-06-22 15:55:00,
2013-06-22 11:10:00,77.2,68.0,30.02,SE,129,7.0,17.0,72,0.00,,,0.00,weatherlink.com 1.10,2013-06-22 16:10:00,
2013-06-22 11:25:00,78.0,68.0,30.00,SSE,160,13.0,18.0,72,0.00,,,0.00,weatherlink.com 1.10,2013-06-22 16:25:00,
2013-06-22 11:40:00,78.8,69.0,29.99,SE,144,5.0,15.0,73,0.00,,,0.00,weatherlink.com 1.10,2013-06-22 16:40:00,
2013-06-22 11:55:00,79.7,70.0,29.98,South,183,6.0,18.0,72,0.00,,,0.00,weatherlink.com 1.10,2013-06-22 16:55:00,
2013-06-22 12:10:00,80.4,71.0,29.96,SSE,167,11.0,16.0,72,0.00,,,0.00,weatherlink.com 1.10,2013-06-22 17:10:00,
2013-06-22 12:25:00,80.9,70.0,29.96,South,176,7.0,16.0,70,0.00,,,0.00,weatherlink.com 1.10,2013-06-22 17:25:00,
2013-06-22 12:40:00,81.7,71.0,29.95,South,171,7.0,16.0,70,0.00,,,0.00,weatherlink.com 1.10,2013-06-22 17:40:00,
2013-06-22 12:55:00,83.0,72.0,29.94,South,176,10.0,16.0,69,0.00,,,0.00,weatherlink.com 1.10,2013-06-22 17:55:00,
2013-06-22 13:10:00,83.7,73.0,29.95,SSE,156,6.0,16.0,69,0.00,,,0.00,weatherlink.com 1.10,2013-06-22 18:10:00,
2013-06-22 13:25:00,84.1,73.0,29.95,South,177,5.0,16.0,70,0.00,,,0.00,weatherlink.com 1.10,2013-06-22 18:25:00,
2013-06-22 13:41:00,84.6,74.0,29.94,SSW,200,6.0,13.0,70,0.00,,,0.00,weatherlink.com 1.10,2013-06-22 18:41:00,
2013-06-22 13:56:00,85.4,74.0,29.94,SSW,194,4.0,14.0,69,0.00,,,0.00,weatherlink.com 1.10,2013-06-22 18:56:00,
2013-06-22 14:11:00,86.0,74.0,29.94,South,169,3.0,14.0,68,0.00,,,0.00,weatherlink.com 1.10,2013-06-22 19:11:00,
2013-06-22 14:26:00,87.6,74.0,29.92,South,191,10.0,14.0,65,0.00,,,0.00,weatherlink.com 1.10,2013-06-22 19:26:00,
2013-06-22 14:41:00,88.2,75.0,29.91,SSW,197,6.0,13.0,65,0.00,,,0.00,weatherlink.com 1.10,2013-06-22 19:41:00,
2013-06-22 14:56:00,89.5,75.0,29.90,South,191,6.0,16.0,62,0.00,,,0.00,weatherlink.com 1.10,2013-06-22 19:56:00,
2013-06-22 15:11:00,90.0,74.0,29.87,SSW,200,8.0,19.0,60,0.00,,,0.00,weatherlink.com 1.10,2013-06-22 20:11:00,
2013-06-22 15:26:00,90.8,74.0,29.86,West,271,5.0,17.0,59,0.00,,,0.00,weatherlink.com 1.10,2013-06-22 20:26:00,
2013-06-22 15:41:00,91.3,74.0,29.86,SSW,204,15.0,18.0,57,0.00,,,0.00,weatherlink.com 1.10,2013-06-22 20:41:00,
2013-06-22 15:56:00,92.2,70.0,29.86,SSW,204,13.0,19.0,49,0.00,,,0.00,weatherlink.com 1.10,2013-06-22 20:56:00,
2013-06-22 16:11:00,92.4,71.0,29.86,WSW,239,11.0,23.0,49,0.00,,,0.00,weatherlink.com 1.10,2013-06-22 21:11:00,
2013-06-22 16:26:00,92.3,70.0,29.86,SW,231,15.0,22.0,48,0.00,,,0.00,weatherlink.com 1.10,2013-06-22 21:26:00,
2013-06-22 16:41:00,92.1,69.0,29.86,SSW,210,10.0,19.0,47,0.00,,,0.00,weatherlink.com 1.10,2013-06-22 21:41:00,
2013-06-22 16:56:00,92.0,68.0,29.86,West,270,6.0,18.0,46,0.00,,,0.00,weatherlink.com 1.10,2013-06-22 21:56:00,
2013-06-22 17:11:00,91.5,69.0,29.86,WSW,239,9.0,17.0,47,0.00,,,0.00,weatherlink.com 1.10,2013-06-22 22:11:00,
2013-06-22 17:26:00,91.1,69.0,29.86,WSW,245,8.0,16.0,49,0.00,,,0.00,weatherlink.com 1.10,2013-06-22 22:26:00,
2013-06-22 17:41:00,90.9,70.0,29.86,SW,232,8.0,16.0,50,0.00,,,0.00,weatherlink.com 1.10,2013-06-22 22:41:00,
2013-06-22 17:56:00,90.8,70.0,29.86,WSW,256,12.0,13.0,50,0.00,,,0.00,weatherlink.com 1.10,2013-06-22 22:56:00,
2013-06-22 18:11:00,89.1,74.0,29.87,SSW,204,10.0,18.0,62,0.00,,,0.00,weatherlink.com 1.10,2013-06-22 23:11:00,
2013-06-22 18:26:00,86.6,74.0,29.86,West,269,7.0,24.0,66,0.00,,,0.00,weatherlink.com 1.10,2013-06-22 23:26:00,
2013-06-22 18:41:00,85.4,73.0,29.86,SW,234,8.0,24.0,67,0.00,,,0.00,weatherlink.com 1.10,2013-06-22 23:41:00,
2013-06-22 18:56:00,84.8,73.0,29.86,SSW,196,17.0,26.0,68,0.00,,,0.00,weatherlink.com 1.10,2013-06-22 23:56:00,
2013-06-22 19:11:00,84.3,73.0,29.86,WSW,256,5.0,21.0,69,0.00,,,0.00,weatherlink.com 1.10,2013-06-23 00:11:00,
2013-06-22 19:26:00,83.8,73.0,29.85,SW,216,9.0,20.0,70,0.00,,,0.00,weatherlink.com 1.10,2013-06-23 00:26:00,
2013-06-22 19:41:00,83.4,73.0,29.86,SSW,193,12.0,17.0,70,0.00,,,0.00,weatherlink.com 1.10,2013-06-23 00:41:00,
2013-06-22 19:56:00,83.0,72.0,29.86,South,180,10.0,22.0,70,0.00,,,0.00,weatherlink.com 1.10,2013-06-23 00:56:00,
2013-06-22 20:11:00,82.3,72.0,29.87,WSW,248,12.0,23.0,70,0.00,,,0.00,weatherlink.com 1.10,2013-06-23 01:11:00,
2013-06-22 20:26:00,81.4,69.0,29.87,SSW,207,21.0,26.0,67,0.00,,,0.00,weatherlink.com 1.10,2013-06-23 01:26:00,
2013-06-22 20:41:00,80.7,70.0,29.88,West,262,20.0,20.0,70,0.00,,,0.00,weatherlink.com 1.10,2013-06-23 01:41:00,
2013-06-22 20:56:00,80.2,70.0,29.87,SSW,212,10.0,18.0,71,0.00,,,0.00,weatherlink.com 1.10,2013-06-23 01:56:00,
2013-06-22 21:11:00,79.6,71.0,29.87,SSW,207,7.0,19.0,74,0.00,,,0.00,weatherlink.com 1.10,2013-06-23 02:11:00,
2013-06-22 21:26:00,79.1,71.0,29.88,WSW,250,8.0,18.0,75,0.00,,,0.00,weatherlink.com 1.10,2013-06-23 02:26:00,
2013-06-22 21:41:00,78.8,71.0,29.89,SSW,200,4.0,17.0,76,0.00,,,0.00,weatherlink.com 1.10,2013-06-23 02:41:00,
2013-06-22 21:56:00,78.3,71.0,29.90,WSW,252,10.0,18.0,77,0.00,,,0.00,weatherlink.com 1.10,2013-06-23 02:56:00,
2013-06-22 22:11:00,77.7,70.0,29.91,WSW,253,9.0,18.0,77,0.00,,,0.00,weatherlink.com 1.10,2013-06-23 03:11:00,
2013-06-22 22:26:00,77.3,69.0,29.92,West,259,12.0,21.0,76,0.00,,,0.00,weatherlink.com 1.10,2013-06-23 03:26:00,
2013-06-22 22:41:00,77.0,69.0,29.92,SW,218,10.0,22.0,76,0.00,,,0.00,weatherlink.com 1.10,2013-06-23 03:41:00,
2013-06-22 22:56:00,76.7,68.0,29.93,SW,224,10.0,22.0,75,0.00,,,0.00,weatherlink.com 1.10,2013-06-23 03:56:00,
2013-06-22 23:11:00,76.3,68.0,29.92,WSW,257,14.0,17.0,76,0.00,,,0.00,weatherlink.com 1.10,2013-06-23 04:11:00,
2013-06-22 23:26:00,75.9,68.0,29.93,SW,225,15.0,19.0,77,0.00,,,0.00,weatherlink.com 1.10,2013-06-23 04:26:00,
2013-06-22 23:41:00,75.7,68.0,29.93,SW,227,7.0,21.0,77,0.00,,,0.00,weatherlink.com 1.10,2013-06-23 04:41:00,
2013-06-22 23:56:00,75.5,68.0,29.93,WNW,298,11.0,22.0,77,0.00,,,0.00,weatherlink.com 1.10,2013-06-23 04:56:00,